LiveATC.Net - Listen to live air traffic control over the Internet!
Airport/ARTCC Code
Frequency Search
(e.g., 124.400, 128.75)
Site-wide search
 


Browse Feeds
Top 50 Feeds
Coverage Map
Bad Weather Areas

LiveATC FAQ
Offer LiveATC feed
Contact LiveATC.net
Press Inquiries

LiveATC on iPhone
LiveATC on Android

Windows Phone
Windows 8/10

LiveATC Mobile
(Mobile browser)

ATC Audio Archives
Interesting Recordings

LiveATC Forums

Home Page
About LiveATC.net
Make a Donation
Terms of Use
Privacy Policy

Canadian Air Freqs

AIRMETs/SIGMETs

FAA Airport Status
Nat'l Airspace Status
Arrival Demand Charts


Server Software By:
Icecast.org
Liquidsoap

Select an area of interest:
U.S. Feeds: Class B Airports | Class C Airports | Class D/Other Airports | ARTCC (Centers)
International Feeds: Canada | Europe | Oceania | Asia | South America | North/Central America | Africa
Misc Feeds: HF Feeds
Search by ICAO/IATA airport code:   (e.g., kbos, kjfk, lax, eham, etc.)


Currently Available Live Feeds: 2585
Status Updated: Tue May 26 2020 12:30:04 UTC


NOTICE

Unauthorized use prohibited. See LiveATC.net Terms of Service

North and Central America Airport Feeds

 

MDPP App/Dep (Archives)
Puerto Plata, Dominican Republic

Feed Status: UP
Listen in your browser - HTML5 player(in browser, HTML5)
Click here to listen with your own player(launches your MP3 player)

MDPP 261200Z 00000KT 9999 FEW018 27/24 Q1014

MDPP Flight Activity (Flightaware)

Listeners: 0 out of 1100 total

Puerto Plata Approach/Departure: 119.000

MDPP Ground/Center (Archives)
Puerto Plata, Dominican Republic

Feed Status: UP
Listen in your browser - HTML5 player(in browser, HTML5)
Click here to listen with your own player(launches your MP3 player)

MDPP 261200Z 00000KT 9999 FEW018 27/24 Q1014

MDPP Flight Activity (Flightaware)

Listeners: 0 out of 1100 total

Puerto Plata Ground: 121.900
Puerto Plata Tower: 118.000
Santo Domingo Center: 124.300

MDPP Ground/Tower/Center (Archives)
Puerto Plata, Dominican Republic

Feed Status: UP
Listen in your browser - HTML5 player(in browser, HTML5)
Click here to listen with your own player(launches your MP3 player)

MDPP 261200Z 00000KT 9999 FEW018 27/24 Q1014

MDPP Flight Activity (Flightaware)

Listeners: 0 out of 1100 total

Puerto Plata Ground: 121.900
Puerto Plata Tower: 118.000
Santo Domingo Center: 124.300

MDPP Tower (Archives)
Puerto Plata, Dominican Republic

Feed Status: UP
Listen in your browser - HTML5 player(in browser, HTML5)
Click here to listen with your own player(launches your MP3 player)

MDPP 261200Z 00000KT 9999 FEW018 27/24 Q1014

MDPP Flight Activity (Flightaware)

Listeners: 0 out of 1100 total

Puerto Plata Tower: 118.000

MMAN Tower
Monterrey, Mexico

Feed Status: DOWN
Offline since: 2020-02-14 03:08:22 UTC

MMAN 261140Z 36010KT 7SM SCT040 SCT070 22/18 A2993 RMK SLP/// 5//// 9// 8/570 HZY LWR SC S RTS

Monterrey Tower: 118.600

MMCU Twr/App (Archives)
Chihuahua, Mexico

Feed Status: UP
Listen in your browser - HTML5 player(in browser, HTML5)
Click here to listen with your own player(launches your MP3 player)

MMCU 260251Z 02008KT 10SM FEW080 25/M09 A2995 RMK SLP034 52025 936 8/030 ISOL CI

MMCU Flight Activity (Flightaware)

Listeners: 0 out of 1100 total

Chihuahua Approach: 121.000
Chihuahua Tower: 118.400

MMGL Twr/App (Archives)
Guadalajara, Mexico

Feed Status: UP
Listen in your browser - HTML5 player(in browser, HTML5)
Click here to listen with your own player(launches your MP3 player)

MMGL 261149Z 00000KT 10SM SKC 11/02 A3009 RMK SLP073 52010 907

MMGL Flight Activity (Flightaware)

Listeners: 1 out of 1100 total

Guadalajara Approach: 120.800
Guadalajara Tower: 118.100

MMHO App/Dep
Hermosillo, Mexico

Feed Status: DOWN
Offline since: 2019-11-27 01:26:40 UTC

MMHO 260040Z 23012KT 10SM FEW200 35/05 A2975 RMK 8/008 HZY

Hermosillo Approach/Departure: 121.400

MMHO Tower
Hermosillo, Mexico

Feed Status: DOWN
Offline since: 2019-11-27 01:26:40 UTC

MMHO 260040Z 23012KT 10SM FEW200 35/05 A2975 RMK 8/008 HZY

Hermosillo Tower: 118.700

MMLP Twr/App (Archives)
La Paz, Mexico

Feed Status: UP
Listen in your browser - HTML5 player(in browser, HTML5)
Click here to listen with your own player(launches your MP3 player)

MMLP 260445Z 17010KT 10SM SKC 18/12 A2989 NOSIG

MMLP Flight Activity (Flightaware)

Listeners: 0 out of 1100 total

La Paz Approach: 120.600
La Paz Tower: 118.100

MMMD Tower/Approach
Merida, Mexico

Feed Status: DOWN
Offline since: 2020-05-07 14:21:39 UTC

MMMD 261149Z 14004KT 7SM FEW030 SCT300 23/21 A2981 RMK SLP093 52004 916 8/508 HZY AC

Merida Approach: 121.200
Merida Tower: 118.300

MMMM Tower (Archives)
Morelia, Mexico

Feed Status: UP
Listen in your browser - HTML5 player(in browser, HTML5)
Click here to listen with your own player(launches your MP3 player)

MMMM 260340Z 24006KT 8SM SKC 19/02 A3010

MMMM Flight Activity (Flightaware)

Listeners: 0 out of 1100 total

Morelia Tower: 118.500

MMMX Approach (Archives)
Mexico City, Mexico

Feed Status: UP
Listen in your browser - HTML5 player(in browser, HTML5)
Click here to listen with your own player(launches your MP3 player)

MMMX 261146Z 20003KT 10SM SKC 16/M03 A3023 NOSIG RMK SLP040 52011 919

MMMX Flight Activity (Flightaware)

Listeners: 4 out of 1100 total

Mexico City Approach: 121.200

MMMX Twr/App (Archives)
Mexico City, Mexico

Feed Status: UP
Listen in your browser - HTML5 player(in browser, HTML5)
Click here to listen with your own player(launches your MP3 player)

MMMX 261146Z 20003KT 10SM SKC 16/M03 A3023 NOSIG RMK SLP040 52011 919

MMMX Flight Activity (Flightaware)

Listeners: 1 out of 1100 total

Mexico City Approach: 121.200
Mexico City Departure (East): 120.500
Mexico City Departure (West): 129.100
Mexico City Final Approach: 119.750
Mexico City Helicopters: 118.150
Mexico City Terminal: 129.600
Mexico City Tower: 118.550

MMMY Tower/Approach
Monterrey, Mexico

Feed Status: DOWN
Offline since: 2020-05-17 02:15:22 UTC

MMMY 261140Z 32014KT 8SM BKN030 BKN070 23/19 A2988 RMK SLP/// 5//// 9// 8/570

Monterrey Approach/Departure: 119.750
Monterrey Tower: 118.100

MMQT Tower/App
Queretaro, Mexico

Feed Status: DOWN
Offline since: 2020-01-27 20:28:06 UTC

MMQT 261143Z 00000KT 8SM SKC 11/01 A3019

Queretaro Approach: 127.200
Queretaro Tower: 118.950

MMSP Gnd/Twr/App/Center (Archives)
San Luis Potosi, Mexico

Feed Status: UP
Listen in your browser - HTML5 player(in browser, HTML5)
Click here to listen with your own player(launches your MP3 player)

MMSP 261151Z 00000KT 1SM BR HZ SKC 12/11 A3010 RMK SLP046 54000 904

MMSP Flight Activity (Flightaware)

Listeners: 0 out of 1100 total

AMX Ground Ops: 131.000
Mexico Center (North, Sector 6): 126.000
Mexico Center (Northwest, Sector 7): 123.900
Mexico Center (West, Sector 5): 125.100
Potosi Approach: 127.500
Potosi Tower: 118.900
TAO Ground Ops: 133.600

MMTC Twr/App/Center (Archives)
Torreon, Mexico

Feed Status: UP
Listen in your browser - HTML5 player(in browser, HTML5)
Click here to listen with your own player(launches your MP3 player)

MMTC 260940Z 36007KT 8SM SKC 25/17 A2993 RMK HZY ISOL SC CI RTS

MMTC Flight Activity (Flightaware)

Listeners: 3 out of 1100 total

Mazatlan Center: 124.200
Mazatlan Center: 124.400
Mazatlan Center: 128.000
Mexico Center: 123.900
Monterrey Center: 125.600
Monterrey Center: 125.425
Monterrey Center: 127.400
Torreon Approach: 119.500
Torreon Tower: 118.500

MMTJ Approach (Archives)
Tijuana, Mexico

Feed Status: UP
Listen in your browser - HTML5 player(in browser, HTML5)
Click here to listen with your own player(launches your MP3 player)

MMTJ 260143Z 28010KT 7SM SCT230 20/15 A2989 RMK 8/001 HZY

MMTJ Flight Activity (Flightaware)

Listeners: 0 out of 1100 total

Tijuana Approach: 120.300

MMTJ Twr/Ramp (Archives)
Tijuana, Mexico

Feed Status: UP
Listen in your browser - HTML5 player(in browser, HTML5)
Click here to listen with your own player(launches your MP3 player)

MMTJ 260143Z 28010KT 7SM SCT230 20/15 A2989 RMK 8/001 HZY

MMTJ Flight Activity (Flightaware)

Listeners: 0 out of 1100 total

Tijuana Ramp: 126.100
Tijuana Tower: 118.100

MUFH Havana FIR (App/Center) (Archives)
Havana, Cuba

Feed Status: UP
Listen in your browser - HTML5 player(in browser, HTML5)
Click here to listen with your own player(launches your MP3 player)

MUFH Flight Activity (Flightaware)

Listeners: 0 out of 1100 total

Hava Approach: 120.300
Havana Center: 120.250
Havana Center: 123.700
Havana Center: 124.550
Havana Center: 133.700
Havana Center: 135.100

TBPB Gnd/Twr/Radar/Center (Archives)
Bridgetown, Barbados

Feed Status: UP
Listen in your browser - HTML5 player(in browser, HTML5)
Click here to listen with your own player(launches your MP3 player)

TBPB 261100Z 10017KT 9999 FEW022 29/23 Q1015 NOSIG

TBPB Flight Activity (Flightaware)

Listeners: 1 out of 1100 total

Adams Approach/Departure: 129.350
Adams Approach/Departure: 128.850
Adams Ground: 121.900
Adams Tower: 118.700
Piarco Center: 123.700

TXKF Tower/Ground (Archives)
Hamilton, Bermuda

Feed Status: UP
Listen in your browser - HTML5 player(in browser, HTML5)
Click here to listen with your own player(launches your MP3 player)

TXKF 261155Z 11014KT 9999 SCT020 SCT047 BKN150 23/20 Q1023

TXKF Flight Activity (Flightaware)

Listeners: 0 out of 1100 total

Bermuda CTAF: 122.800
Bermuda Ground/Clearance: 124.500
Bermuda Tower: 118.100

ZNY Bermuda Sector (Archives)
Hamilton, Bermuda

Feed Status: UP
Listen in your browser - HTML5 player(in browser, HTML5)
Click here to listen with your own player(launches your MP3 player)

TXKF 261155Z 11014KT 9999 SCT020 SCT047 BKN150 23/20 Q1023

TXKF Flight Activity (Flightaware)

Listeners: 0 out of 1100 total

New York Approach (Bermuda Sector) : 119.100
New York Center (Bermuda Sector): 128.500

MHLC Gnd/Twr/Center (Archives)
La Ceiba, Honduras

Feed Status: UP
Listen in your browser - HTML5 player(in browser, HTML5)
Click here to listen with your own player(launches your MP3 player)

MHLC 252200Z 03010KT 9999 FEW028TCU 33/25 Q1006 A2971

MHLC Flight Activity (Flightaware)

Listeners: 0 out of 1100 total

CENAMER: 123.900
CENAMER: 124.300
Goloson Ground: 121.900
Goloson Tower: 118.500
La Ceiba Radio: 128.900

MHRO Gnd/Twr/App/Center (Archives)
Roatan, Honduras

Feed Status: UP
Listen in your browser - HTML5 player(in browser, HTML5)
Click here to listen with your own player(launches your MP3 player)

MHRO 251600Z 14004KT 9999 FEW020 33/27 Q1008 A2977

MHRO Flight Activity (Flightaware)

Listeners: 0 out of 1100 total

CENAMER (Center): 124.300
La Ceiba Radio: 128.900
Roatan Ground: 121.600
Roatan Tower: 118.100

MHTG ATIS
Tegucigalpa, Honduras

Feed Status: DOWN
Offline since: 2020-05-20 16:19:40 UTC

MHTG 252200Z 18012KT 8000 TS SCT032TCU FEW034CB 30/20 Q1013 A2991

Toncontin ATIS: 127.750

MHTG Gnd/Twr/App/Ctr/Ops (Archives)
Tegucigalpa, Honduras

Feed Status: UP
Listen in your browser - HTML5 player(in browser, HTML5)
Click here to listen with your own player(launches your MP3 player)

MHTG 252200Z 18012KT 8000 TS SCT032TCU FEW034CB 30/20 Q1013 A2991

MHTG Flight Activity (Flightaware)

Listeners: 0 out of 1100 total

American Airlines Ops: 130.700
ARINC ACARS: 131.550
Cenamer Center: 123.900
Cenamer Center: 124.300
Cenamer Center: 124.100
CMP Ops: 129.925
Continental Airlines Ops: 129.925
FAH Ground: 122.900
Taca Ops: 131.300
Taca Ops Sal: 130.300
Tecnologias Unidas: 133.000
Tegucigalpa RDO: 126.700
Toncontin Approach: 119.100
Toncontin Ground: 121.900
Toncontin Tower: 118.700

MROC Del/Gnd/Twr (Archives)
San Jose, Costa Rica

Feed Status: UP
Listen in your browser - HTML5 player(in browser, HTML5)
Click here to listen with your own player(launches your MP3 player)

MROC 261200Z VRB02KT 9999 BCFG FEW003 BKN200 22/22 A2999 NOSIG

MROC Flight Activity (Flightaware)

Listeners: 0 out of 1100 total

Coco Clearance Delivery/Ground: 121.900
Coco Tower: 118.600

MROC Del/Gnd/Twr/App/Center/Misc (Archives)
San Jose, Costa Rica

Feed Status: UP
Listen in your browser - HTML5 player(in browser, HTML5)
Click here to listen with your own player(launches your MP3 player)

MROC 261200Z VRB02KT 9999 BCFG FEW003 BKN200 22/22 A2999 NOSIG

MROC Flight Activity (Flightaware)

Listeners: 2 out of 1100 total

Central American Center (CENAMER Control): 124.100
Coco Center (Control over CR Airspace): 119.600
Coco Clearance Delivery: 121.300
Coco Ground: 121.900
Coco Terminal Control: 120.500
Coco Tower: 118.600
Coco UNICOM: 126.800
SYQ Ground: 121.700
SYQ Tower: 118.300

MSLP Gnd/Twr/App (Archives)
San Salvador, El Salvador

Feed Status: UP
Listen in your browser - HTML5 player(in browser, HTML5)
Click here to listen with your own player(launches your MP3 player)

MSLP 261150Z VRB02KT 9999 FEW023 FEW037CB 26/25 Q1009 A2979 NOSIG RMK CB SE SW

MSLP Flight Activity (Flightaware)

Listeners: 0 out of 1100 total

Comalapa Ground: 121.700
Comalapa Tower: 118.000
Compalapa Approach: 119.900

MSLP Gnd/Twr/App/Center
San Salvador, El Salvador

Feed Status: DOWN
Offline since: 2020-05-25 19:46:05 UTC

MSLP 261150Z VRB02KT 9999 FEW023 FEW037CB 26/25 Q1009 A2979 NOSIG RMK CB SE SW

Avianca Ops: 123.500
CCA: 119.300
CENAMER: 124.100
Comalapa Authorizations: 121.250
Comalapa Departure: 123.900
Comalapa Ground: 121.700
Comalapa Tower: 118.000
Compalapa Approach: 119.900
Ilopango Tower: 118.300
TACA Ops: 130.500

MSSS Tower
San Salvador, El Salvador

Feed Status: DOWN
Offline since: 2020-05-22 11:41:23 UTC

MSSS 252150Z 20008KT 9999 FEW037 30/22 Q1011 A2987

Ilopango Tower: 118.300